sensor_id;sensor_type;location;lat;lon;timestamp;P1;durP1;ratioP1;P2;durP2;ratioP2
19030;SDS011;9648;51.130;13.978;2023-07-31T00:00:10;10.48;;;3.13;;
19030;SDS011;9648;51.130;13.978;2023-07-31T00:02:38;8.00;;;3.53;;
19030;SDS011;9648;51.130;13.978;2023-07-31T00:05:05;8.10;;;2.90;;
19030;SDS011;9648;51.130;13.978;2023-07-31T00:07:33;5.10;;;2.97;;
19030;SDS011;9648;51.130;13.978;2023-07-31T00:10:00;6.50;;;3.08;;
19030;SDS011;9648;51.130;13.978;2023-07-31T00:12:27;6.57;;;2.83;;
19030;SDS011;9648;51.130;13.978;2023-07-31T00:14:54;5.72;;;2.95;;
19030;SDS011;9648;51.130;13.978;2023-07-31T00:17:21;5.60;;;2.65;;
19030;SDS011;9648;51.130;13.978;2023-07-31T00:19:48;4.95;;;2.67;;
19030;SDS011;9648;51.130;13.978;2023-07-31T00:22:15;6.30;;;3.10;;
19030;SDS011;9648;51.130;13.978;2023-07-31T00:24:43;4.60;;;2.78;;
19030;SDS011;9648;51.130;13.978;2023-07-31T00:27:10;7.18;;;2.72;;
19030;SDS011;9648;51.130;13.978;2023-07-31T00:29:37;8.65;;;2.67;;
19030;SDS011;9648;51.130;13.978;2023-07-31T00:32:04;5.07;;;2.57;;
19030;SDS011;9648;51.130;13.978;2023-07-31T00:34:32;5.82;;;2.67;;
19030;SDS011;9648;51.130;13.978;2023-07-31T00:36:58;6.50;;;2.60;;
19030;SDS011;9648;51.130;13.978;2023-07-31T00:39:25;4.90;;;2.40;;
19030;SDS011;9648;51.130;13.978;2023-07-31T00:41:53;4.07;;;2.33;;
19030;SDS011;9648;51.130;13.978;2023-07-31T00:44:20;4.35;;;2.15;;
19030;SDS011;9648;51.130;13.978;2023-07-31T00:46:47;3.43;;;2.37;;
19030;SDS011;9648;51.130;13.978;2023-07-31T00:49:14;5.00;;;2.30;;
19030;SDS011;9648;51.130;13.978;2023-07-31T00:51:41;5.95;;;2.40;;
19030;SDS011;9648;51.130;13.978;2023-07-31T00:54:08;4.63;;;2.13;;
19030;SDS011;9648;51.130;13.978;2023-07-31T00:56:37;7.77;;;2.70;;
19030;SDS011;9648;51.130;13.978;2023-07-31T00:59:06;4.75;;;2.38;;
19030;SDS011;9648;51.130;13.978;2023-07-31T01:01:32;3.05;;;2.33;;
19030;SDS011;9648;51.130;13.978;2023-07-31T01:03:59;6.53;;;2.40;;
19030;SDS011;9648;51.130;13.978;2023-07-31T01:06:27;5.18;;;2.33;;
19030;SDS011;9648;51.130;13.978;2023-07-31T01:09:03;5.43;;;2.30;;
19030;SDS011;9648;51.130;13.978;2023-07-31T01:11:34;5.55;;;2.70;;
19030;SDS011;9648;51.130;13.978;2023-07-31T01:14:06;5.72;;;2.63;;
19030;SDS011;9648;51.130;13.978;2023-07-31T01:16:32;6.65;;;2.45;;
19030;SDS011;9648;51.130;13.978;2023-07-31T01:18:59;5.07;;;2.30;;
19030;SDS011;9648;51.130;13.978;2023-07-31T01:21:30;7.50;;;2.63;;
19030;SDS011;9648;51.130;13.978;2023-07-31T01:24:23;4.65;;;2.38;;
19030;SDS011;9648;51.130;13.978;2023-07-31T01:26:58;5.07;;;2.40;;
19030;SDS011;9648;51.130;13.978;2023-07-31T01:29:32;5.65;;;2.40;;
19030;SDS011;9648;51.130;13.978;2023-07-31T01:32:04;5.88;;;2.67;;
19030;SDS011;9648;51.130;13.978;2023-07-31T01:34:32;6.60;;;2.60;;
19030;SDS011;9648;51.130;13.978;2023-07-31T01:37:00;8.48;;;2.58;;
19030;SDS011;9648;51.130;13.978;2023-07-31T01:39:26;4.53;;;2.47;;
19030;SDS011;9648;51.130;13.978;2023-07-31T01:41:53;5.57;;;2.50;;
19030;SDS011;9648;51.130;13.978;2023-07-31T01:44:21;7.27;;;2.60;;
19030;SDS011;9648;51.130;13.978;2023-07-31T01:46:48;8.57;;;2.63;;
19030;SDS011;9648;51.130;13.978;2023-07-31T01:49:15;7.00;;;2.60;;
19030;SDS011;9648;51.130;13.978;2023-07-31T01:51:42;7.57;;;2.60;;
19030;SDS011;9648;51.130;13.978;2023-07-31T01:54:08;5.13;;;2.60;;
19030;SDS011;9648;51.130;13.978;2023-07-31T01:56:36;7.27;;;2.93;;
19030;SDS011;9648;51.130;13.978;2023-07-31T01:59:02;5.50;;;2.25;;
19030;SDS011;9648;51.130;13.978;2023-07-31T02:01:31;7.50;;;2.60;;
19030;SDS011;9648;51.130;13.978;2023-07-31T02:03:58;8.20;;;2.70;;
19030;SDS011;9648;51.130;13.978;2023-07-31T02:06:24;7.00;;;2.72;;
19030;SDS011;9648;51.130;13.978;2023-07-31T02:08:51;5.43;;;2.80;;
19030;SDS011;9648;51.130;13.978;2023-07-31T02:11:18;7.97;;;2.80;;
19030;SDS011;9648;51.130;13.978;2023-07-31T02:13:45;6.97;;;2.78;;
19030;SDS011;9648;51.130;13.978;2023-07-31T02:16:12;7.32;;;2.60;;
19030;SDS011;9648;51.130;13.978;2023-07-31T02:18:40;5.25;;;2.50;;
19030;SDS011;9648;51.130;13.978;2023-07-31T02:21:07;4.83;;;2.50;;
19030;SDS011;9648;51.130;13.978;2023-07-31T02:23:33;4.95;;;2.58;;
19030;SDS011;9648;51.130;13.978;2023-07-31T02:26:00;6.55;;;2.70;;
19030;SDS011;9648;51.130;13.978;2023-07-31T02:28:27;4.95;;;2.70;;
19030;SDS011;9648;51.130;13.978;2023-07-31T02:30:54;4.28;;;2.70;;
19030;SDS011;9648;51.130;13.978;2023-07-31T02:33:21;5.97;;;2.60;;
19030;SDS011;9648;51.130;13.978;2023-07-31T02:35:49;6.32;;;2.58;;
19030;SDS011;9648;51.130;13.978;2023-07-31T02:38:16;6.82;;;2.70;;
19030;SDS011;9648;51.130;13.978;2023-07-31T02:40:45;8.07;;;2.90;;
19030;SDS011;9648;51.130;13.978;2023-07-31T02:43:11;7.03;;;2.60;;
19030;SDS011;9648;51.130;13.978;2023-07-31T02:45:38;7.32;;;2.83;;
19030;SDS011;9648;51.130;13.978;2023-07-31T02:48:05;6.55;;;3.10;;
19030;SDS011;9648;51.130;13.978;2023-07-31T02:50:32;8.15;;;2.60;;
19030;SDS011;9648;51.130;13.978;2023-07-31T02:53:00;6.63;;;2.63;;
19030;SDS011;9648;51.130;13.978;2023-07-31T02:55:27;5.32;;;2.58;;
19030;SDS011;9648;51.130;13.978;2023-07-31T02:57:53;6.00;;;2.43;;
19030;SDS011;9648;51.130;13.978;2023-07-31T03:00:20;7.13;;;2.65;;
19030;SDS011;9648;51.130;13.978;2023-07-31T03:02:47;6.57;;;2.60;;
19030;SDS011;9648;51.130;13.978;2023-07-31T03:05:14;8.60;;;2.78;;
19030;SDS011;9648;51.130;13.978;2023-07-31T03:07:41;7.25;;;2.80;;
19030;SDS011;9648;51.130;13.978;2023-07-31T03:10:09;6.65;;;2.65;;
19030;SDS011;9648;51.130;13.978;2023-07-31T03:12:36;6.73;;;2.80;;
19030;SDS011;9648;51.130;13.978;2023-07-31T03:15:03;4.57;;;2.70;;
19030;SDS011;9648;51.130;13.978;2023-07-31T03:17:30;4.55;;;2.30;;
19030;SDS011;9648;51.130;13.978;2023-07-31T03:19:57;5.47;;;2.40;;
19030;SDS011;9648;51.130;13.978;2023-07-31T03:22:23;5.90;;;2.50;;
19030;SDS011;9648;51.130;13.978;2023-07-31T03:24:50;7.90;;;2.40;;
19030;SDS011;9648;51.130;13.978;2023-07-31T03:27:19;5.53;;;2.37;;
19030;SDS011;9648;51.130;13.978;2023-07-31T03:29:46;4.28;;;2.20;;
19030;SDS011;9648;51.130;13.978;2023-07-31T03:32:14;7.47;;;2.53;;
19030;SDS011;9648;51.130;13.978;2023-07-31T03:34:41;5.32;;;2.17;;
19030;SDS011;9648;51.130;13.978;2023-07-31T03:37:08;8.73;;;2.40;;
19030;SDS011;9648;51.130;13.978;2023-07-31T03:39:35;6.57;;;2.50;;
19030;SDS011;9648;51.130;13.978;2023-07-31T03:42:02;5.18;;;2.30;;
19030;SDS011;9648;51.130;13.978;2023-07-31T03:44:30;5.05;;;2.45;;
19030;SDS011;9648;51.130;13.978;2023-07-31T03:46:57;4.63;;;1.75;;
19030;SDS011;9648;51.130;13.978;2023-07-31T03:49:24;4.88;;;1.85;;
19030;SDS011;9648;51.130;13.978;2023-07-31T03:51:50;5.40;;;1.92;;
19030;SDS011;9648;51.130;13.978;2023-07-31T03:54:17;5.40;;;1.90;;
19030;SDS011;9648;51.130;13.978;2023-07-31T03:56:44;3.42;;;1.50;;
19030;SDS011;9648;51.130;13.978;2023-07-31T03:59:11;4.90;;;1.57;;
19030;SDS011;9648;51.130;13.978;2023-07-31T04:01:39;3.53;;;1.60;;
19030;SDS011;9648;51.130;13.978;2023-07-31T04:04:06;6.15;;;1.83;;
19030;SDS011;9648;51.130;13.978;2023-07-31T04:06:32;5.00;;;1.60;;
19030;SDS011;9648;51.130;13.978;2023-07-31T04:08:59;5.13;;;1.70;;
19030;SDS011;9648;51.130;13.978;2023-07-31T04:11:26;6.03;;;1.83;;
19030;SDS011;9648;51.130;13.978;2023-07-31T04:13:53;6.70;;;1.90;;
19030;SDS011;9648;51.130;13.978;2023-07-31T04:16:20;5.55;;;1.83;;
19030;SDS011;9648;51.130;13.978;2023-07-31T04:18:51;4.00;;;1.50;;
19030;SDS011;9648;51.130;13.978;2023-07-31T04:21:18;5.38;;;1.90;;
19030;SDS011;9648;51.130;13.978;2023-07-31T04:23:45;4.35;;;1.80;;
19030;SDS011;9648;51.130;13.978;2023-07-31T04:26:12;4.15;;;1.77;;
19030;SDS011;9648;51.130;13.978;2023-07-31T04:28:39;5.75;;;2.10;;
19030;SDS011;9648;51.130;13.978;2023-07-31T04:31:05;4.53;;;2.10;;
19030;SDS011;9648;51.130;13.978;2023-07-31T04:33:32;7.18;;;2.58;;
19030;SDS011;9648;51.130;13.978;2023-07-31T04:36:00;6.60;;;2.60;;
19030;SDS011;9648;51.130;13.978;2023-07-31T04:38:27;6.75;;;2.22;;
19030;SDS011;9648;51.130;13.978;2023-07-31T04:40:54;5.15;;;2.28;;
19030;SDS011;9648;51.130;13.978;2023-07-31T04:43:20;6.07;;;2.22;;
19030;SDS011;9648;51.130;13.978;2023-07-31T04:45:47;7.85;;;2.33;;
19030;SDS011;9648;51.130;13.978;2023-07-31T04:48:15;4.45;;;2.17;;
19030;SDS011;9648;51.130;13.978;2023-07-31T04:50:42;5.43;;;2.17;;
19030;SDS011;9648;51.130;13.978;2023-07-31T04:53:10;4.43;;;2.10;;
19030;SDS011;9648;51.130;13.978;2023-07-31T04:55:37;7.50;;;2.50;;
19030;SDS011;9648;51.130;13.978;2023-07-31T04:58:04;9.68;;;2.90;;
19030;SDS011;9648;51.130;13.978;2023-07-31T05:00:31;5.78;;;2.53;;
19030;SDS011;9648;51.130;13.978;2023-07-31T05:02:58;8.23;;;3.17;;
19030;SDS011;9648;51.130;13.978;2023-07-31T05:05:25;6.22;;;3.13;;
19030;SDS011;9648;51.130;13.978;2023-07-31T05:07:51;6.47;;;3.00;;
19030;SDS011;9648;51.130;13.978;2023-07-31T05:10:20;8.95;;;3.65;;
19030;SDS011;9648;51.130;13.978;2023-07-31T05:12:46;8.68;;;3.10;;
19030;SDS011;9648;51.130;13.978;2023-07-31T05:15:13;5.85;;;2.80;;
19030;SDS011;9648;51.130;13.978;2023-07-31T05:17:40;4.65;;;2.60;;
19030;SDS011;9648;51.130;13.978;2023-07-31T05:20:07;6.03;;;2.70;;
19030;SDS011;9648;51.130;13.978;2023-07-31T05:22:34;7.32;;;2.50;;
19030;SDS011;9648;51.130;13.978;2023-07-31T05:25:01;8.55;;;2.90;;
19030;SDS011;9648;51.130;13.978;2023-07-31T05:27:31;6.13;;;2.60;;
19030;SDS011;9648;51.130;13.978;2023-07-31T05:29:58;11.68;;;5.40;;
19030;SDS011;9648;51.130;13.978;2023-07-31T05:32:25;6.03;;;3.47;;
19030;SDS011;9648;51.130;13.978;2023-07-31T05:34:52;7.88;;;3.97;;
19030;SDS011;9648;51.130;13.978;2023-07-31T05:37:19;9.48;;;4.30;;
19030;SDS011;9648;51.130;13.978;2023-07-31T05:39:45;8.20;;;3.40;;
19030;SDS011;9648;51.130;13.978;2023-07-31T05:42:12;8.55;;;4.03;;
19030;SDS011;9648;51.130;13.978;2023-07-31T05:44:40;7.50;;;3.60;;
19030;SDS011;9648;51.130;13.978;2023-07-31T05:47:07;6.65;;;3.53;;
19030;SDS011;9648;51.130;13.978;2023-07-31T05:49:34;6.70;;;3.10;;
19030;SDS011;9648;51.130;13.978;2023-07-31T05:52:01;6.53;;;2.90;;
19030;SDS011;9648;51.130;13.978;2023-07-31T05:54:28;6.45;;;2.72;;
19030;SDS011;9648;51.130;13.978;2023-07-31T05:56:55;7.67;;;3.00;;
19030;SDS011;9648;51.130;13.978;2023-07-31T05:59:22;8.90;;;3.10;;
19030;SDS011;9648;51.130;13.978;2023-07-31T06:01:50;6.87;;;3.17;;
19030;SDS011;9648;51.130;13.978;2023-07-31T06:04:16;7.80;;;3.17;;
19030;SDS011;9648;51.130;13.978;2023-07-31T06:06:43;11.20;;;3.50;;
19030;SDS011;9648;51.130;13.978;2023-07-31T06:09:10;6.72;;;2.80;;
19030;SDS011;9648;51.130;13.978;2023-07-31T06:11:37;6.45;;;2.60;;
19030;SDS011;9648;51.130;13.978;2023-07-31T06:14:04;6.32;;;2.58;;
19030;SDS011;9648;51.130;13.978;2023-07-31T06:16:31;6.72;;;2.60;;
19030;SDS011;9648;51.130;13.978;2023-07-31T06:18:59;7.00;;;2.53;;
19030;SDS011;9648;51.130;13.978;2023-07-31T06:21:27;6.80;;;2.80;;
19030;SDS011;9648;51.130;13.978;2023-07-31T06:23:54;6.47;;;2.83;;
19030;SDS011;9648;51.130;13.978;2023-07-31T06:26:21;6.60;;;2.60;;
19030;SDS011;9648;51.130;13.978;2023-07-31T06:28:48;5.65;;;2.45;;
19030;SDS011;9648;51.130;13.978;2023-07-31T06:31:15;5.93;;;2.80;;
19030;SDS011;9648;51.130;13.978;2023-07-31T06:33:45;6.03;;;2.33;;
19030;SDS011;9648;51.130;13.978;2023-07-31T06:36:13;4.88;;;2.30;;
19030;SDS011;9648;51.130;13.978;2023-07-31T06:38:40;7.95;;;2.28;;
19030;SDS011;9648;51.130;13.978;2023-07-31T06:41:07;6.57;;;2.20;;
19030;SDS011;9648;51.130;13.978;2023-07-31T06:43:34;6.00;;;2.47;;
19030;SDS011;9648;51.130;13.978;2023-07-31T06:46:04;6.75;;;2.75;;
19030;SDS011;9648;51.130;13.978;2023-07-31T06:48:31;3.92;;;2.20;;
19030;SDS011;9648;51.130;13.978;2023-07-31T06:50:57;4.95;;;2.40;;
19030;SDS011;9648;51.130;13.978;2023-07-31T06:53:26;9.10;;;2.63;;
19030;SDS011;9648;51.130;13.978;2023-07-31T06:55:53;5.15;;;2.30;;
19030;SDS011;9648;51.130;13.978;2023-07-31T06:58:20;7.03;;;2.40;;
19030;SDS011;9648;51.130;13.978;2023-07-31T07:00:46;5.45;;;2.20;;
19030;SDS011;9648;51.130;13.978;2023-07-31T07:03:14;8.18;;;2.55;;
19030;SDS011;9648;51.130;13.978;2023-07-31T07:05:42;6.03;;;2.55;;
19030;SDS011;9648;51.130;13.978;2023-07-31T07:08:09;7.13;;;2.50;;
19030;SDS011;9648;51.130;13.978;2023-07-31T07:10:37;7.80;;;2.75;;
19030;SDS011;9648;51.130;13.978;2023-07-31T07:13:04;5.57;;;2.70;;
19030;SDS011;9648;51.130;13.978;2023-07-31T07:15:30;5.75;;;2.47;;
19030;SDS011;9648;51.130;13.978;2023-07-31T07:17:57;7.45;;;2.45;;
19030;SDS011;9648;51.130;13.978;2023-07-31T07:20:24;6.07;;;2.70;;
19030;SDS011;9648;51.130;13.978;2023-07-31T07:22:51;5.40;;;2.50;;
19030;SDS011;9648;51.130;13.978;2023-07-31T07:25:18;6.65;;;2.50;;
19030;SDS011;9648;51.130;13.978;2023-07-31T07:27:46;6.90;;;2.77;;
19030;SDS011;9648;51.130;13.978;2023-07-31T07:30:12;4.95;;;2.10;;
19030;SDS011;9648;51.130;13.978;2023-07-31T07:32:40;5.43;;;2.50;;
19030;SDS011;9648;51.130;13.978;2023-07-31T07:35:07;3.88;;;2.30;;
19030;SDS011;9648;51.130;13.978;2023-07-31T07:37:34;8.55;;;2.63;;
19030;SDS011;9648;51.130;13.978;2023-07-31T07:40:01;5.70;;;2.33;;
19030;SDS011;9648;51.130;13.978;2023-07-31T07:42:28;6.40;;;2.30;;
19030;SDS011;9648;51.130;13.978;2023-07-31T07:44:56;7.50;;;2.42;;
19030;SDS011;9648;51.130;13.978;2023-07-31T07:47:23;7.30;;;2.30;;
19030;SDS011;9648;51.130;13.978;2023-07-31T07:49:49;7.25;;;2.53;;
19030;SDS011;9648;51.130;13.978;2023-07-31T07:52:16;5.60;;;2.15;;
19030;SDS011;9648;51.130;13.978;2023-07-31T07:54:43;3.90;;;2.25;;
19030;SDS011;9648;51.130;13.978;2023-07-31T07:57:10;3.45;;;2.30;;
19030;SDS011;9648;51.130;13.978;2023-07-31T07:59:36;9.30;;;2.47;;
19030;SDS011;9648;51.130;13.978;2023-07-31T08:02:05;5.45;;;2.45;;
19030;SDS011;9648;51.130;13.978;2023-07-31T08:04:31;4.22;;;2.25;;
19030;SDS011;9648;51.130;13.978;2023-07-31T08:06:58;8.73;;;2.50;;
19030;SDS011;9648;51.130;13.978;2023-07-31T08:09:25;5.80;;;2.10;;
19030;SDS011;9648;51.130;13.978;2023-07-31T08:11:52;5.13;;;2.20;;
19030;SDS011;9648;51.130;13.978;2023-07-31T08:14:19;6.63;;;2.65;;
19030;SDS011;9648;51.130;13.978;2023-07-31T08:16:46;5.72;;;2.30;;
19030;SDS011;9648;51.130;13.978;2023-07-31T08:19:14;6.10;;;2.40;;
19030;SDS011;9648;51.130;13.978;2023-07-31T08:21:41;3.77;;;2.27;;
19030;SDS011;9648;51.130;13.978;2023-07-31T08:24:08;4.60;;;2.30;;
19030;SDS011;9648;51.130;13.978;2023-07-31T08:26:35;6.75;;;2.50;;
19030;SDS011;9648;51.130;13.978;2023-07-31T08:29:02;4.55;;;2.22;;
19030;SDS011;9648;51.130;13.978;2023-07-31T08:31:29;6.05;;;2.20;;
19030;SDS011;9648;51.130;13.978;2023-07-31T08:33:55;4.60;;;2.03;;
19030;SDS011;9648;51.130;13.978;2023-07-31T08:36:23;7.47;;;2.35;;
19030;SDS011;9648;51.130;13.978;2023-07-31T08:38:50;5.73;;;2.03;;
19030;SDS011;9648;51.130;13.978;2023-07-31T08:41:17;7.68;;;2.75;;
19030;SDS011;9648;51.130;13.978;2023-07-31T08:43:44;5.28;;;2.20;;
19030;SDS011;9648;51.130;13.978;2023-07-31T08:46:12;4.20;;;2.30;;
19030;SDS011;9648;51.130;13.978;2023-07-31T08:48:39;5.45;;;1.95;;
19030;SDS011;9648;51.130;13.978;2023-07-31T08:51:09;5.68;;;2.22;;
19030;SDS011;9648;51.130;13.978;2023-07-31T08:53:37;7.32;;;2.30;;
19030;SDS011;9648;51.130;13.978;2023-07-31T08:56:04;7.17;;;2.37;;
19030;SDS011;9648;51.130;13.978;2023-07-31T08:58:32;6.78;;;2.25;;
19030;SDS011;9648;51.130;13.978;2023-07-31T09:01:01;5.77;;;2.30;;
19030;SDS011;9648;51.130;13.978;2023-07-31T09:03:31;6.53;;;2.20;;
19030;SDS011;9648;51.130;13.978;2023-07-31T09:06:00;5.22;;;2.17;;
19030;SDS011;9648;51.130;13.978;2023-07-31T09:08:30;5.53;;;2.00;;
19030;SDS011;9648;51.130;13.978;2023-07-31T09:11:00;5.63;;;2.25;;
19030;SDS011;9648;51.130;13.978;2023-07-31T09:13:29;3.90;;;2.08;;
19030;SDS011;9648;51.130;13.978;2023-07-31T09:15:56;5.00;;;2.10;;
19030;SDS011;9648;51.130;13.978;2023-07-31T09:18:23;4.93;;;2.33;;
19030;SDS011;9648;51.130;13.978;2023-07-31T09:21:00;5.25;;;1.88;;
19030;SDS011;9648;51.130;13.978;2023-07-31T09:23:27;4.60;;;2.03;;
19030;SDS011;9648;51.130;13.978;2023-07-31T09:26:08;3.67;;;2.00;;
19030;SDS011;9648;51.130;13.978;2023-07-31T09:28:34;5.30;;;2.22;;
19030;SDS011;9648;51.130;13.978;2023-07-31T09:31:03;4.43;;;2.20;;
19030;SDS011;9648;51.130;13.978;2023-07-31T09:33:30;3.65;;;2.10;;
19030;SDS011;9648;51.130;13.978;2023-07-31T09:35:58;4.47;;;2.00;;
19030;SDS011;9648;51.130;13.978;2023-07-31T09:38:26;5.20;;;2.10;;
19030;SDS011;9648;51.130;13.978;2023-07-31T09:40:53;4.53;;;2.17;;
19030;SDS011;9648;51.130;13.978;2023-07-31T09:43:21;5.00;;;2.03;;
19030;SDS011;9648;51.130;13.978;2023-07-31T09:45:54;6.13;;;2.00;;
19030;SDS011;9648;51.130;13.978;2023-07-31T09:51:18;6.72;;;2.28;;
19030;SDS011;9648;51.130;13.978;2023-07-31T09:53:53;4.15;;;2.10;;
19030;SDS011;9648;51.130;13.978;2023-07-31T09:56:20;6.10;;;2.05;;
19030;SDS011;9648;51.130;13.978;2023-07-31T09:58:50;5.30;;;2.30;;
19030;SDS011;9648;51.130;13.978;2023-07-31T10:01:18;4.25;;;2.33;;
19030;SDS011;9648;51.130;13.978;2023-07-31T10:03:45;5.23;;;2.30;;
19030;SDS011;9648;51.130;13.978;2023-07-31T10:06:12;4.63;;;2.25;;
19030;SDS011;9648;51.130;13.978;2023-07-31T10:08:41;4.88;;;2.30;;
19030;SDS011;9648;51.130;13.978;2023-07-31T10:11:12;5.60;;;2.20;;
19030;SDS011;9648;51.130;13.978;2023-07-31T10:13:39;5.85;;;2.28;;
19030;SDS011;9648;51.130;13.978;2023-07-31T10:16:09;3.40;;;1.90;;
19030;SDS011;9648;51.130;13.978;2023-07-31T10:18:38;4.15;;;2.08;;
19030;SDS011;9648;51.130;13.978;2023-07-31T10:21:06;5.40;;;2.13;;
19030;SDS011;9648;51.130;13.978;2023-07-31T10:23:33;4.87;;;2.10;;
19030;SDS011;9648;51.130;13.978;2023-07-31T10:26:00;4.28;;;2.38;;
19030;SDS011;9648;51.130;13.978;2023-07-31T10:28:29;5.25;;;2.10;;
19030;SDS011;9648;51.130;13.978;2023-07-31T10:30:58;5.80;;;2.10;;
19030;SDS011;9648;51.130;13.978;2023-07-31T10:33:27;5.10;;;2.13;;
19030;SDS011;9648;51.130;13.978;2023-07-31T10:38:41;4.60;;;2.10;;
19030;SDS011;9648;51.130;13.978;2023-07-31T10:41:09;4.80;;;2.00;;
19030;SDS011;9648;51.130;13.978;2023-07-31T10:43:36;5.93;;;2.20;;
19030;SDS011;9648;51.130;13.978;2023-07-31T10:46:06;5.50;;;2.15;;
19030;SDS011;9648;51.130;13.978;2023-07-31T10:48:37;4.90;;;2.00;;
19030;SDS011;9648;51.130;13.978;2023-07-31T10:51:06;4.28;;;2.05;;
19030;SDS011;9648;51.130;13.978;2023-07-31T10:53:35;3.40;;;1.80;;
19030;SDS011;9648;51.130;13.978;2023-07-31T10:56:03;5.72;;;2.10;;
19030;SDS011;9648;51.130;13.978;2023-07-31T10:58:31;5.28;;;2.10;;
19030;SDS011;9648;51.130;13.978;2023-07-31T11:01:00;5.38;;;2.10;;
19030;SDS011;9648;51.130;13.978;2023-07-31T11:03:41;5.40;;;2.15;;
19030;SDS011;9648;51.130;13.978;2023-07-31T11:06:09;6.28;;;2.30;;
19030;SDS011;9648;51.130;13.978;2023-07-31T11:08:41;5.25;;;2.00;;
19030;SDS011;9648;51.130;13.978;2023-07-31T11:11:09;4.15;;;2.13;;
19030;SDS011;9648;51.130;13.978;2023-07-31T11:13:41;5.05;;;2.00;;
19030;SDS011;9648;51.130;13.978;2023-07-31T11:16:10;5.10;;;2.00;;
19030;SDS011;9648;51.130;13.978;2023-07-31T11:18:38;3.60;;;2.10;;
19030;SDS011;9648;51.130;13.978;2023-07-31T11:21:08;2.97;;;2.03;;
19030;SDS011;9648;51.130;13.978;2023-07-31T11:23:38;2.92;;;1.88;;
19030;SDS011;9648;51.130;13.978;2023-07-31T11:26:05;4.95;;;2.30;;
19030;SDS011;9648;51.130;13.978;2023-07-31T11:28:33;6.30;;;2.33;;
19030;SDS011;9648;51.130;13.978;2023-07-31T11:31:01;4.82;;;2.00;;
19030;SDS011;9648;51.130;13.978;2023-07-31T11:33:28;3.20;;;1.97;;
19030;SDS011;9648;51.130;13.978;2023-07-31T11:35:55;3.35;;;2.10;;
19030;SDS011;9648;51.130;13.978;2023-07-31T11:38:24;4.80;;;1.98;;
19030;SDS011;9648;51.130;13.978;2023-07-31T11:40:52;3.47;;;1.90;;
19030;SDS011;9648;51.130;13.978;2023-07-31T11:43:19;6.78;;;2.25;;
19030;SDS011;9648;51.130;13.978;2023-07-31T11:45:47;3.27;;;2.13;;
19030;SDS011;9648;51.130;13.978;2023-07-31T11:48:18;5.95;;;2.10;;
19030;SDS011;9648;51.130;13.978;2023-07-31T11:50:47;4.20;;;2.00;;
19030;SDS011;9648;51.130;13.978;2023-07-31T11:53:16;4.78;;;2.00;;
19030;SDS011;9648;51.130;13.978;2023-07-31T11:55:46;4.67;;;2.10;;
19030;SDS011;9648;51.130;13.978;2023-07-31T11:58:14;3.17;;;2.05;;
19030;SDS011;9648;51.130;13.978;2023-07-31T12:00:43;4.35;;;2.08;;
19030;SDS011;9648;51.130;13.978;2023-07-31T12:03:10;3.50;;;2.20;;
19030;SDS011;9648;51.130;13.978;2023-07-31T12:05:37;3.70;;;1.90;;
19030;SDS011;9648;51.130;13.978;2023-07-31T12:08:08;4.28;;;2.10;;
19030;SDS011;9648;51.130;13.978;2023-07-31T12:10:36;4.10;;;1.90;;
19030;SDS011;9648;51.130;13.978;2023-07-31T12:13:07;5.65;;;2.22;;
19030;SDS011;9648;51.130;13.978;2023-07-31T12:15:38;4.65;;;2.15;;
19030;SDS011;9648;51.130;13.978;2023-07-31T12:18:07;5.10;;;2.10;;
19030;SDS011;9648;51.130;13.978;2023-07-31T12:20:39;4.65;;;2.17;;
19030;SDS011;9648;51.130;13.978;2023-07-31T12:23:12;3.40;;;1.90;;
19030;SDS011;9648;51.130;13.978;2023-07-31T12:25:40;3.47;;;2.00;;
19030;SDS011;9648;51.130;13.978;2023-07-31T12:28:09;3.97;;;1.88;;
19030;SDS011;9648;51.130;13.978;2023-07-31T12:30:37;6.57;;;2.10;;
19030;SDS011;9648;51.130;13.978;2023-07-31T12:33:06;3.47;;;1.70;;
19030;SDS011;9648;51.130;13.978;2023-07-31T12:35:39;3.70;;;1.67;;
19030;SDS011;9648;51.130;13.978;2023-07-31T12:38:07;4.03;;;1.70;;
19030;SDS011;9648;51.130;13.978;2023-07-31T12:40:37;3.55;;;1.67;;
19030;SDS011;9648;51.130;13.978;2023-07-31T12:43:05;4.30;;;1.70;;
19030;SDS011;9648;51.130;13.978;2023-07-31T12:45:34;4.37;;;1.70;;
19030;SDS011;9648;51.130;13.978;2023-07-31T12:48:01;3.92;;;1.73;;
19030;SDS011;9648;51.130;13.978;2023-07-31T12:50:28;2.80;;;1.50;;
19030;SDS011;9648;51.130;13.978;2023-07-31T12:52:55;4.78;;;1.92;;
19030;SDS011;9648;51.130;13.978;2023-07-31T12:55:23;4.32;;;1.75;;
19030;SDS011;9648;51.130;13.978;2023-07-31T12:57:50;2.42;;;1.50;;
19030;SDS011;9648;51.130;13.978;2023-07-31T13:00:17;3.77;;;1.63;;
19030;SDS011;9648;51.130;13.978;2023-07-31T13:02:46;3.47;;;1.55;;
19030;SDS011;9648;51.130;13.978;2023-07-31T13:05:14;3.22;;;1.58;;
19030;SDS011;9648;51.130;13.978;2023-07-31T13:07:41;3.17;;;1.60;;
19030;SDS011;9648;51.130;13.978;2023-07-31T13:10:08;3.33;;;1.50;;
19030;SDS011;9648;51.130;13.978;2023-07-31T13:12:35;3.55;;;1.45;;
19030;SDS011;9648;51.130;13.978;2023-07-31T13:15:02;3.65;;;1.45;;
19030;SDS011;9648;51.130;13.978;2023-07-31T13:17:29;3.42;;;1.63;;
19030;SDS011;9648;51.130;13.978;2023-07-31T13:19:58;4.22;;;1.70;;
19030;SDS011;9648;51.130;13.978;2023-07-31T13:22:25;3.10;;;1.70;;
19030;SDS011;9648;51.130;13.978;2023-07-31T13:24:53;4.03;;;1.77;;
19030;SDS011;9648;51.130;13.978;2023-07-31T13:27:19;3.08;;;1.60;;
19030;SDS011;9648;51.130;13.978;2023-07-31T13:29:47;3.63;;;1.73;;
19030;SDS011;9648;51.130;13.978;2023-07-31T13:32:15;4.17;;;1.70;;
19030;SDS011;9648;51.130;13.978;2023-07-31T13:34:43;3.65;;;1.75;;
19030;SDS011;9648;51.130;13.978;2023-07-31T13:37:11;4.03;;;1.90;;
19030;SDS011;9648;51.130;13.978;2023-07-31T13:39:39;5.25;;;1.80;;
19030;SDS011;9648;51.130;13.978;2023-07-31T13:42:06;4.00;;;1.85;;
19030;SDS011;9648;51.130;13.978;2023-07-31T13:44:37;4.35;;;1.80;;
19030;SDS011;9648;51.130;13.978;2023-07-31T13:47:03;3.42;;;1.90;;
19030;SDS011;9648;51.130;13.978;2023-07-31T13:49:30;3.30;;;1.70;;
19030;SDS011;9648;51.130;13.978;2023-07-31T13:51:57;3.55;;;1.55;;
19030;SDS011;9648;51.130;13.978;2023-07-31T13:54:25;4.82;;;1.95;;
19030;SDS011;9648;51.130;13.978;2023-07-31T13:56:52;3.35;;;1.75;;
19030;SDS011;9648;51.130;13.978;2023-07-31T13:59:19;4.90;;;1.90;;
19030;SDS011;9648;51.130;13.978;2023-07-31T14:01:46;3.13;;;1.55;;
19030;SDS011;9648;51.130;13.978;2023-07-31T14:04:14;5.63;;;1.95;;
19030;SDS011;9648;51.130;13.978;2023-07-31T14:06:40;4.10;;;1.80;;
19030;SDS011;9648;51.130;13.978;2023-07-31T14:09:07;3.38;;;1.90;;
19030;SDS011;9648;51.130;13.978;2023-07-31T14:11:35;3.30;;;1.92;;
19030;SDS011;9648;51.130;13.978;2023-07-31T14:17:25;4.05;;;2.38;;
19030;SDS011;9648;51.130;13.978;2023-07-31T14:20:02;4.30;;;1.83;;
19030;SDS011;9648;51.130;13.978;2023-07-31T14:22:30;3.33;;;1.90;;
19030;SDS011;9648;51.130;13.978;2023-07-31T14:24:58;4.72;;;1.90;;
19030;SDS011;9648;51.130;13.978;2023-07-31T14:27:31;4.03;;;1.70;;
19030;SDS011;9648;51.130;13.978;2023-07-31T14:30:01;3.37;;;1.93;;
19030;SDS011;9648;51.130;13.978;2023-07-31T14:32:30;3.35;;;1.70;;
19030;SDS011;9648;51.130;13.978;2023-07-31T14:34:59;2.60;;;1.60;;
19030;SDS011;9648;51.130;13.978;2023-07-31T14:37:27;2.63;;;1.70;;
19030;SDS011;9648;51.130;13.978;2023-07-31T14:40:04;4.15;;;1.70;;
19030;SDS011;9648;51.130;13.978;2023-07-31T14:42:33;3.60;;;1.60;;
19030;SDS011;9648;51.130;13.978;2023-07-31T14:45:00;6.60;;;1.88;;
19030;SDS011;9648;51.130;13.978;2023-07-31T14:47:31;2.78;;;1.75;;
19030;SDS011;9648;51.130;13.978;2023-07-31T14:50:02;3.42;;;1.80;;
19030;SDS011;9648;51.130;13.978;2023-07-31T14:52:29;4.18;;;1.70;;
19030;SDS011;9648;51.130;13.978;2023-07-31T14:54:58;2.67;;;1.60;;
19030;SDS011;9648;51.130;13.978;2023-07-31T14:57:35;3.27;;;1.80;;
19030;SDS011;9648;51.130;13.978;2023-07-31T15:00:05;4.25;;;1.95;;